createdAt,value
2023-01-20T00:00:54.651Z,72.28
2023-01-20T00:03:57.905Z,72.46
2023-01-20T00:07:00.627Z,72.52
2023-01-20T00:10:03.414Z,72.54
2023-01-20T00:13:07.307Z,72.31
2023-01-20T00:16:10.540Z,73.00
2023-01-20T00:19:14.189Z,72.58
2023-01-20T00:22:16.882Z,72.82
2023-01-20T00:25:19.629Z,72.38
2023-01-20T00:28:23.636Z,72.37
2023-01-20T00:31:27.516Z,72.39
2023-01-20T00:34:30.450Z,72.91
2023-01-20T00:37:33.083Z,72.78
2023-01-20T00:40:35.668Z,73.14
2023-01-20T00:43:39.891Z,73.35
2023-01-20T00:46:42.695Z,73.52
2023-01-20T00:49:45.258Z,73.93
2023-01-20T00:52:47.853Z,74.20
2023-01-20T00:55:50.623Z,74.03
2023-01-20T00:58:55.162Z,73.76
2023-01-20T01:01:58.144Z,74.20
2023-01-20T01:05:00.807Z,74.32
2023-01-20T01:08:03.457Z,74.82
2023-01-20T01:11:06.841Z,74.85
2023-01-20T01:14:11.167Z,74.48
2023-01-20T01:17:13.807Z,74.44
2023-01-20T01:20:16.525Z,74.71
2023-01-20T01:23:19.165Z,74.82
2023-01-20T01:26:22.031Z,74.90
2023-01-20T01:29:26.541Z,74.63
2023-01-20T01:32:29.173Z,74.83
2023-01-20T01:35:31.736Z,74.33
2023-01-20T01:38:34.274Z,74.12
2023-01-20T01:41:36.897Z,73.90
2023-01-20T01:45:21.313Z,73.59
2023-01-20T01:48:25.507Z,73.74
2023-01-20T01:51:30.788Z,74.19
2023-01-20T01:54:36.070Z,74.36
2023-01-20T01:57:38.951Z,74.10
2023-01-20T02:00:43.252Z,74.38
2023-01-20T02:03:52.984Z,74.23
2023-01-20T02:06:57.701Z,74.86
2023-01-20T02:10:00.686Z,74.47
2023-01-20T02:13:03.460Z,74.30
2023-01-20T02:16:13.780Z,73.75
2023-01-20T02:19:34.566Z,73.51
2023-01-20T02:22:43.923Z,73.75
2023-01-20T02:25:59.437Z,73.67
2023-01-20T02:29:20.216Z,73.19
2023-01-20T02:32:28.469Z,72.88
2023-01-20T02:35:36.729Z,73.44
2023-01-20T02:38:43.561Z,73.97
2023-01-20T02:41:53.001Z,73.90
2023-01-20T02:44:58.758Z,74.11
2023-01-20T02:48:03.979Z,74.55
2023-01-20T02:51:10.494Z,74.79
2023-01-20T02:54:14.952Z,75.07
2023-01-20T02:57:20.089Z,75.50
2023-01-20T03:00:26.727Z,75.21
2023-01-20T03:03:33.965Z,75.39
2023-01-20T03:06:39.143Z,75.84
2023-01-20T03:09:44.483Z,75.91
2023-01-20T03:12:48.094Z,76.30
2023-01-20T03:15:56.846Z,76.32
2023-01-20T03:19:00.766Z,76.64
2023-01-20T03:22:03.225Z,76.64
2023-01-20T03:25:06.924Z,76.43
2023-01-20T03:28:09.932Z,76.26
2023-01-20T03:31:18.006Z,76.14
2023-01-20T03:34:24.005Z,76.43
2023-01-20T03:37:26.570Z,76.62
2023-01-20T03:40:33.107Z,76.62
2023-01-20T03:43:43.978Z,75.92
2023-01-20T03:46:49.137Z,74.97
2023-01-20T03:49:57.083Z,74.69
2023-01-20T03:53:02.887Z,73.83
2023-01-20T03:56:08.785Z,73.22
2023-01-20T03:59:14.256Z,73.70
2023-01-20T04:02:16.997Z,73.82
2023-01-20T04:05:21.096Z,73.52
2023-01-20T04:08:25.504Z,72.72
2023-01-20T04:11:28.184Z,73.29
2023-01-20T04:14:30.839Z,72.82
2023-01-20T04:17:33.489Z,72.99
2023-01-20T04:20:37.510Z,72.67
2023-01-20T04:23:41.386Z,72.91
2023-01-20T04:26:43.763Z,72.38
2023-01-20T04:29:46.410Z,72.04
2023-01-20T04:33:04.357Z,72.01
2023-01-20T04:36:08.754Z,72.17
2023-01-20T04:39:11.417Z,72.50
2023-01-20T04:42:14.055Z,72.61
2023-01-20T04:45:17.859Z,72.45
2023-01-20T04:48:20.398Z,71.84
2023-01-20T04:51:24.268Z,72.36
2023-01-20T04:54:26.869Z,72.55
2023-01-20T04:57:29.573Z,72.02
2023-01-20T05:00:32.323Z,70.66
2023-01-20T05:03:35.021Z,70.15
2023-01-20T05:06:42.616Z,69.18
2023-01-20T05:09:45.854Z,69.53
2023-01-20T05:12:48.627Z,71.36
2023-01-20T05:15:51.347Z,72.43
2023-01-20T05:18:55.088Z,72.85
2023-01-20T05:22:00.384Z,73.46
2023-01-20T05:25:03.205Z,73.49
2023-01-20T05:28:05.870Z,72.83
2023-01-20T05:31:08.634Z,70.88
2023-01-20T05:34:11.426Z,70.23
2023-01-20T05:37:17.885Z,70.25
2023-01-20T05:40:20.556Z,70.66
2023-01-20T05:43:23.123Z,70.81
2023-01-20T05:46:25.833Z,70.56
2023-01-20T05:49:28.499Z,70.85
2023-01-20T05:52:32.544Z,70.53
2023-01-20T05:55:35.386Z,70.35
2023-01-20T05:58:38.005Z,70.41
2023-01-20T06:01:41.067Z,70.66
2023-01-20T06:04:43.894Z,70.83
2023-01-20T06:07:49.571Z,71.61
2023-01-20T06:10:53.789Z,71.58
2023-01-20T06:13:56.460Z,71.04
2023-01-20T06:16:59.001Z,70.65
2023-01-20T06:20:01.712Z,69.94
2023-01-20T06:23:05.834Z,69.86
2023-01-20T06:26:12.780Z,69.18
2023-01-20T06:29:15.482Z,69.42
2023-01-20T06:32:18.116Z,69.61
2023-01-20T06:35:21.559Z,70.13
2023-01-20T06:38:26.644Z,70.22
2023-01-20T06:41:29.249Z,69.81
2023-01-20T06:44:31.958Z,70.02
2023-01-20T06:47:34.567Z,69.73
2023-01-20T06:50:37.197Z,69.86
2023-01-20T06:53:41.657Z,70.57
2023-01-20T06:56:44.326Z,71.11
2023-01-20T06:59:46.933Z,70.83
2023-01-20T07:02:49.511Z,70.64
2023-01-20T07:05:55.338Z,70.06
2023-01-20T07:09:00.848Z,69.91
2023-01-20T07:12:08.605Z,68.86
2023-01-20T07:15:12.030Z,68.69
2023-01-20T07:18:40.035Z,69.02
2023-01-20T07:21:46.263Z,68.00
2023-01-20T07:24:50.247Z,67.91
2023-01-20T07:27:53.144Z,68.25
2023-01-20T07:35:31.827Z,68.81
2023-01-20T07:38:35.581Z,68.53
2023-01-20T07:41:45.141Z,68.85
2023-01-20T07:44:49.511Z,68.60
2023-01-20T07:48:44.279Z,68.80
2023-01-20T07:52:00.120Z,68.23
2023-01-20T07:55:08.099Z,68.00
2023-01-20T07:58:25.797Z,66.59
2023-01-20T08:01:37.134Z,65.49
2023-01-20T08:09:04.328Z,64.46
2023-01-20T08:12:38.594Z,63.98
2023-01-20T08:15:42.623Z,63.86
2023-01-20T08:18:45.729Z,63.33
2023-01-20T08:21:48.582Z,63.63
2023-01-20T08:24:51.315Z,63.70
2023-01-20T08:28:30.408Z,64.02
2023-01-20T08:31:36.351Z,64.17
2023-01-20T08:35:08.487Z,64.33
2023-01-20T08:42:25.029Z,63.29
2023-01-20T08:45:57.363Z,63.66
2023-01-20T08:49:11.893Z,64.24
2023-01-20T08:52:22.701Z,63.79
2023-01-20T08:55:25.299Z,63.66
2023-01-20T08:58:28.676Z,62.51
2023-01-20T09:01:33.639Z,61.86
2023-01-20T09:04:38.539Z,61.96
2023-01-20T09:07:43.630Z,62.49
2023-01-20T09:10:46.655Z,61.89
2023-01-20T09:13:49.787Z,62.28
2023-01-20T09:16:52.874Z,63.04
2023-01-20T09:19:57.067Z,63.58
2023-01-20T09:23:02.526Z,63.73
2023-01-20T09:26:06.552Z,63.65
2023-01-20T09:29:12.724Z,63.50
2023-01-20T09:32:18.474Z,63.18
2023-01-20T09:35:22.720Z,62.95
2023-01-20T09:38:43.617Z,62.92
2023-01-20T09:42:06.301Z,60.88
2023-01-20T09:45:24.765Z,60.82
2023-01-20T09:48:53.451Z,60.58
2023-01-20T09:52:28.809Z,60.49
2023-01-20T09:55:42.719Z,60.95
2023-01-20T09:58:49.829Z,60.64
2023-01-20T10:01:58.883Z,60.61
2023-01-20T10:05:09.746Z,61.53
2023-01-20T10:08:17.103Z,61.89
2023-01-20T10:11:21.793Z,62.31
2023-01-20T10:14:32.217Z,62.61
2023-01-20T10:17:45.520Z,62.19
2023-01-20T10:20:56.063Z,62.30
2023-01-20T10:24:02.334Z,62.05
2023-01-20T10:27:07.771Z,62.41
2023-01-20T10:30:12.373Z,62.08
2023-01-20T10:33:20.174Z,62.03
2023-01-20T10:36:27.544Z,62.70
2023-01-20T10:39:39.009Z,63.64
2023-01-20T10:42:41.811Z,63.40
2023-01-20T10:46:02.502Z,63.96
2023-01-20T10:49:21.353Z,64.02
2023-01-20T10:52:36.677Z,64.24
2023-01-20T10:55:54.372Z,63.53
2023-01-20T10:59:01.388Z,62.93
2023-01-20T11:02:31.621Z,62.57
2023-01-20T11:05:38.367Z,62.30
2023-01-20T11:08:44.459Z,62.30
2023-01-20T11:11:51.929Z,61.25
2023-01-20T11:15:01.236Z,60.62
2023-01-20T11:18:28.981Z,59.34
2023-01-20T11:21:37.771Z,57.54
2023-01-20T11:24:44.574Z,57.22
2023-01-20T11:27:48.841Z,55.13
2023-01-20T11:30:53.410Z,52.80
2023-01-20T11:33:58.975Z,49.67
2023-01-20T11:37:18.890Z,47.42
2023-01-20T11:40:24.536Z,48.24
2023-01-20T11:43:45.328Z,48.86
2023-01-20T11:46:48.879Z,49.04
2023-01-20T11:50:27.360Z,49.21
2023-01-20T11:53:32.050Z,49.20
2023-01-20T11:56:40.044Z,50.67
2023-01-20T11:59:51.457Z,51.17
2023-01-20T12:02:58.615Z,51.72
2023-01-20T12:06:04.645Z,51.86
2023-01-20T12:09:12.608Z,51.28
2023-01-20T12:12:21.527Z,52.72
2023-01-20T12:15:37.127Z,52.12
2023-01-20T12:19:04.854Z,51.65
2023-01-20T12:22:14.955Z,52.05
2023-01-20T12:25:34.344Z,52.17
2023-01-20T12:29:05.087Z,52.37
2023-01-20T12:32:11.487Z,51.56
2023-01-20T12:35:24.708Z,49.60
2023-01-20T12:38:33.916Z,48.85
2023-01-20T12:42:30.241Z,48.72
2023-01-20T12:46:04.374Z,47.90
2023-01-20T12:49:32.022Z,48.07
2023-01-20T12:53:02.199Z,47.83
2023-01-20T12:56:13.455Z,49.17
2023-01-20T12:59:23.663Z,50.04
2023-01-20T13:02:45.814Z,51.13
2023-01-20T13:06:10.338Z,51.68
2023-01-20T13:09:26.749Z,51.31
2023-01-20T13:12:37.010Z,53.22
2023-01-20T13:15:43.583Z,53.99
2023-01-20T13:19:03.403Z,55.03
2023-01-20T13:22:12.538Z,54.52
2023-01-20T13:25:17.490Z,53.68
2023-01-20T13:28:21.894Z,53.55
2023-01-20T13:31:34.285Z,51.79
2023-01-20T13:34:40.618Z,52.52
2023-01-20T13:37:49.757Z,52.58
2023-01-20T13:40:54.737Z,50.38
2023-01-20T13:43:57.530Z,50.74
2023-01-20T13:47:00.112Z,49.73
2023-01-20T13:50:23.503Z,48.69
2023-01-20T13:53:29.018Z,50.71
2023-01-20T13:56:33.745Z,50.46
2023-01-20T13:59:37.396Z,50.55
2023-01-20T14:02:41.071Z,49.06
2023-01-20T14:05:43.667Z,49.19
2023-01-20T14:08:49.645Z,47.38
2023-01-20T14:15:40.029Z,33.97
2023-01-20T14:18:42.959Z,29.13
2023-01-20T14:21:45.657Z,28.02
2023-01-20T14:24:52.619Z,33.32
2023-01-20T14:27:55.797Z,38.84
2023-01-20T14:31:19.718Z,42.54
2023-01-20T14:34:29.204Z,44.96
2023-01-20T14:37:33.579Z,47.08
2023-01-20T14:40:37.598Z,47.74
2023-01-20T14:43:46.940Z,47.09
2023-01-20T14:46:51.193Z,46.63
2023-01-20T14:49:54.992Z,46.37
2023-01-20T14:52:57.851Z,45.32
2023-01-20T14:56:03.114Z,45.10
2023-01-20T14:59:05.796Z,45.99
2023-01-20T15:02:18.196Z,47.42
2023-01-20T15:05:31.324Z,48.45
2023-01-20T15:08:56.734Z,48.97
2023-01-20T15:12:37.858Z,49.88
2023-01-20T15:15:43.446Z,50.71
2023-01-20T15:19:33.261Z,52.32
2023-01-20T15:22:35.925Z,53.14
2023-01-20T15:25:38.540Z,55.40
2023-01-20T15:28:45.158Z,56.64
2023-01-20T15:31:47.862Z,58.03
2023-01-20T15:34:50.537Z,58.63
2023-01-20T15:37:55.155Z,59.25
2023-01-20T15:40:57.999Z,60.29
2023-01-20T15:44:02.278Z,61.24
2023-01-20T15:47:13.968Z,61.78
2023-01-20T15:50:20.896Z,62.76
2023-01-20T15:53:23.630Z,63.02
2023-01-20T15:56:28.034Z,63.52
2023-01-20T15:59:32.458Z,63.38
2023-01-20T16:02:35.250Z,63.28
2023-01-20T16:05:37.889Z,63.10
2023-01-20T16:08:40.735Z,64.13
2023-01-20T16:11:43.893Z,64.51
2023-01-20T16:14:47.969Z,64.84
2023-01-20T16:17:52.719Z,64.69
2023-01-20T16:20:55.426Z,65.05
2023-01-20T16:23:58.081Z,64.81
2023-01-20T16:27:00.731Z,66.11
2023-01-20T16:30:05.658Z,65.65
2023-01-20T16:33:16.996Z,66.75
2023-01-20T16:36:21.155Z,67.11
2023-01-20T16:39:23.908Z,67.41
2023-01-20T16:42:26.541Z,68.33
2023-01-20T16:45:31.525Z,69.07
2023-01-20T16:48:34.247Z,69.80
2023-01-20T16:51:37.020Z,70.24
2023-01-20T16:54:39.822Z,70.78
2023-01-20T16:57:44.100Z,70.59
2023-01-20T17:00:48.241Z,71.20
2023-01-20T17:03:52.358Z,71.14
2023-01-20T17:06:55.140Z,71.46
2023-01-20T17:09:58.452Z,71.52
2023-01-20T17:13:01.155Z,72.05
2023-01-20T17:16:05.788Z,71.83
2023-01-20T17:19:10.100Z,71.82
2023-01-20T17:22:12.914Z,71.84
2023-01-20T17:25:17.876Z,71.80
2023-01-20T17:28:20.690Z,71.64
2023-01-20T17:31:26.018Z,72.09
2023-01-20T17:34:28.921Z,71.85
2023-01-20T17:37:31.651Z,71.89
2023-01-20T17:40:34.285Z,71.74
2023-01-20T17:43:38.479Z,71.71
2023-01-20T17:46:42.430Z,71.78
2023-01-20T17:49:45.288Z,71.73
2023-01-20T17:52:48.086Z,71.95
2023-01-20T17:55:55.222Z,72.33
2023-01-20T17:59:03.011Z,72.37
2023-01-20T18:02:07.102Z,72.65
2023-01-20T18:05:10.335Z,72.55
2023-01-20T18:08:13.897Z,72.73
2023-01-20T18:11:16.705Z,72.82
2023-01-20T18:14:19.423Z,73.32
2023-01-20T18:17:23.614Z,73.61
2023-01-20T18:20:26.504Z,73.49
2023-01-20T18:23:29.388Z,73.12
2023-01-20T18:26:34.129Z,72.67
2023-01-20T18:29:36.897Z,72.37
2023-01-20T18:32:41.193Z,71.29
2023-01-20T18:35:43.924Z,71.64
2023-01-20T18:38:50.549Z,71.77
2023-01-20T18:41:53.388Z,71.79
2023-01-20T18:44:55.978Z,72.21
2023-01-20T18:47:59.949Z,72.33
2023-01-20T18:51:02.607Z,72.40
2023-01-20T18:54:07.377Z,71.92
2023-01-20T18:57:10.013Z,71.44
2023-01-20T19:00:13.654Z,71.25
2023-01-20T19:03:18.777Z,71.60
2023-01-20T19:06:22.870Z,72.07
2023-01-20T19:09:26.162Z,71.75
2023-01-20T19:12:28.761Z,71.85
2023-01-20T19:15:33.584Z,72.14
2023-01-20T19:18:38.246Z,71.55
2023-01-20T19:21:40.963Z,71.53
2023-01-20T19:24:43.782Z,70.51
2023-01-20T19:27:46.400Z,69.74
2023-01-20T19:30:49.179Z,70.22
2023-01-20T19:33:54.117Z,70.08
2023-01-20T19:36:57.489Z,70.58
2023-01-20T19:40:00.257Z,71.09
2023-01-20T19:43:02.949Z,71.01
2023-01-20T19:46:06.847Z,71.55
2023-01-20T19:49:11.382Z,71.23
2023-01-20T19:52:14.673Z,71.55
2023-01-20T19:55:17.416Z,71.36
2023-01-20T19:58:20.047Z,71.98
2023-01-20T20:01:24.161Z,72.37
2023-01-20T20:04:28.418Z,72.15
2023-01-20T20:07:31.013Z,71.54
2023-01-20T20:10:33.690Z,71.52
2023-01-20T20:13:36.547Z,71.41
2023-01-20T20:16:39.828Z,71.03
2023-01-20T20:19:44.161Z,70.61
2023-01-20T20:22:46.826Z,70.40
2023-01-20T20:25:49.813Z,70.81
2023-01-20T20:28:53.202Z,70.91
2023-01-20T20:31:55.822Z,70.81
2023-01-20T20:35:00.389Z,71.08
2023-01-20T20:38:03.267Z,70.74
2023-01-20T20:41:07.828Z,70.71
2023-01-20T20:44:11.704Z,70.22
2023-01-20T20:47:14.095Z,70.18
2023-01-20T20:50:19.524Z,70.12
2023-01-20T20:53:22.594Z,69.60
2023-01-20T20:56:27.893Z,69.91
2023-01-20T20:59:30.516Z,69.42
2023-01-20T21:02:33.225Z,69.29
2023-01-20T21:05:37.244Z,69.13
2023-01-20T21:08:40.271Z,69.23
2023-01-20T21:11:43.364Z,69.13
2023-01-20T21:14:46.433Z,69.16
2023-01-20T21:17:49.046Z,68.79
2023-01-20T21:20:57.464Z,68.70
2023-01-20T21:24:00.201Z,68.65
2023-01-20T21:27:02.907Z,68.62
2023-01-20T21:30:06.316Z,68.72
2023-01-20T21:33:13.237Z,68.38
2023-01-20T21:36:17.156Z,68.36
2023-01-20T21:39:20.506Z,68.21
2023-01-20T21:42:23.079Z,67.89
2023-01-20T21:45:25.665Z,67.59
2023-01-20T21:48:45.633Z,67.59
2023-01-20T21:52:07.243Z,67.31
2023-01-20T21:55:11.447Z,67.22
2023-01-20T21:58:14.445Z,66.98
2023-01-20T22:01:17.109Z,67.04
2023-01-20T22:04:20.187Z,66.86
2023-01-20T22:07:24.471Z,67.33
2023-01-20T22:10:27.093Z,67.36
2023-01-20T22:13:29.895Z,66.94
2023-01-20T22:16:33.016Z,66.85
2023-01-20T22:19:36.232Z,67.18
2023-01-20T22:22:40.263Z,67.55
2023-01-20T22:25:42.912Z,67.50
2023-01-20T22:28:45.514Z,66.92
2023-01-20T22:31:48.467Z,66.78
2023-01-20T22:34:51.047Z,66.67
2023-01-20T22:37:55.020Z,66.57
2023-01-20T22:41:03.269Z,66.37
2023-01-20T22:44:06.029Z,66.51
2023-01-20T22:47:10.780Z,66.10
2023-01-20T22:50:13.824Z,65.82
2023-01-20T22:53:17.824Z,66.30
2023-01-20T22:56:24.441Z,66.26
2023-01-20T22:59:27.449Z,67.33
2023-01-20T23:02:30.040Z,67.43
2023-01-20T23:05:32.727Z,67.50
2023-01-20T23:08:36.950Z,68.38
2023-01-20T23:11:40.159Z,68.75
2023-01-20T23:15:01.314Z,69.62
2023-01-20T23:18:04.113Z,69.61
2023-01-20T23:21:07.024Z,69.51
2023-01-20T23:24:10.910Z,69.64
2023-01-20T23:27:13.410Z,69.28
2023-01-20T23:30:16.730Z,69.20
2023-01-20T23:33:19.457Z,69.04
2023-01-20T23:36:23.734Z,68.65
2023-01-20T23:39:27.662Z,68.41
2023-01-20T23:42:30.202Z,68.53
2023-01-20T23:45:32.751Z,68.38
2023-01-20T23:48:36.120Z,68.43
2023-01-20T23:51:38.896Z,68.53
2023-01-20T23:54:42.914Z,68.73
2023-01-20T23:57:45.450Z,68.34
